sensor_id;sensor_type;location;lat;lon;timestamp;pressure;altitude;pressure_sealevel;temperature;humidity
62293;BME280;48292;47.724;18.992;2022-07-29T03:35:08;97410.13;;;17.75;64.06
62293;BME280;48292;47.724;18.992;2022-07-29T03:40:11;97410.13;;;17.75;64.06
62293;BME280;48292;47.724;18.992;2022-07-29T03:45:17;97405.76;;;17.68;62.94
62293;BME280;48292;47.724;18.992;2022-07-29T03:50:19;97405.76;;;17.68;62.94
62293;BME280;48292;47.724;18.992;2022-07-29T03:55:21;97409.78;;;17.79;63.17
62293;BME280;48292;47.724;18.992;2022-07-29T04:00:23;97409.78;;;17.79;63.17
62293;BME280;48292;47.724;18.992;2022-07-29T04:05:26;97412.84;;;17.5;65.19
62293;BME280;48292;47.724;18.992;2022-07-29T04:10:27;97413.2;;;17.67;65.26
62293;BME280;48292;47.724;18.992;2022-07-29T04:15:36;97413.2;;;17.67;65.26
62293;BME280;48292;47.724;18.992;2022-07-29T04:20:38;97419.57;;;18.1;62.96
62293;BME280;48292;47.724;18.992;2022-07-29T04:25:40;97419.57;;;18.1;62.96
62293;BME280;48292;47.724;18.992;2022-07-29T04:30:42;97413.09;;;18.05;63.95
62293;BME280;48292;47.724;18.992;2022-07-29T04:35:44;97413.09;;;18.05;63.95
62293;BME280;48292;47.724;18.992;2022-07-29T04:40:50;97409.27;;;18.06;65.17
62293;BME280;48292;47.724;18.992;2022-07-29T04:45:55;97409.27;;;18.06;65.17
62293;BME280;48292;47.724;18.992;2022-07-29T04:50:57;97414.38;;;18.2;65.07
62293;BME280;48292;47.724;18.992;2022-07-29T04:56:00;97414.38;;;18.2;65.07
62293;BME280;48292;47.724;18.992;2022-07-29T05:01:01;97420.53;;;18.36;65.25
62293;BME280;48292;47.724;18.992;2022-07-29T05:06:03;97420.53;;;18.36;65.25
62293;BME280;48292;47.724;18.992;2022-07-29T05:11:05;97422.73;;;18.88;61.73
62293;BME280;48292;47.724;18.992;2022-07-29T05:16:11;97422.73;;;18.88;61.73
62293;BME280;48292;47.724;18.992;2022-07-29T05:21:13;97421.2;;;19.04;61.92
62293;BME280;48292;47.724;18.992;2022-07-29T05:26:15;97423.09;;;19.44;59.62
62293;BME280;48292;47.724;18.992;2022-07-29T05:31:17;97423.09;;;19.44;59.62
62293;BME280;48292;47.724;18.992;2022-07-29T05:36:19;97415.69;;;19.84;58.59
62293;BME280;48292;47.724;18.992;2022-07-29T05:41:21;97415.69;;;19.84;58.59
62293;BME280;48292;47.724;18.992;2022-07-29T05:46:23;97419.77;;;20.22;58.73
62293;BME280;48292;47.724;18.992;2022-07-29T05:51:25;97419.77;;;20.22;58.73
62293;BME280;48292;47.724;18.992;2022-07-29T05:56:27;97415.31;;;20.93;56.09
62293;BME280;48292;47.724;18.992;2022-07-29T06:01:29;97415.31;;;20.93;56.09
62293;BME280;48292;47.724;18.992;2022-07-29T06:06:31;97416.3;;;21.25;55.33
62293;BME280;48292;47.724;18.992;2022-07-29T06:11:33;97416.3;;;21.25;55.33
62293;BME280;48292;47.724;18.992;2022-07-29T06:16:36;97412.2;;;21.95;51.38
62293;BME280;48292;47.724;18.992;2022-07-29T06:21:41;97412.2;;;21.95;51.38
62293;BME280;48292;47.724;18.992;2022-07-29T06:26:43;97419.33;;;22.18;52.92
62293;BME280;48292;47.724;18.992;2022-07-29T06:31:45;97419.33;;;22.18;52.92
62293;BME280;48292;47.724;18.992;2022-07-29T06:36:47;97429.02;;;22.9;48.98
62293;BME280;48292;47.724;18.992;2022-07-29T06:41:51;97429.02;;;22.9;48.98
62293;BME280;48292;47.724;18.992;2022-07-29T06:46:53;97437.33;;;23.11;49.69
62293;BME280;48292;47.724;18.992;2022-07-29T06:51:55;97438.13;;;23.34;48.63
62293;BME280;48292;47.724;18.992;2022-07-29T06:56:56;97438.13;;;23.34;48.63
62293;BME280;48292;47.724;18.992;2022-07-29T07:01:58;97432.67;;;23.87;47.22
62293;BME280;48292;47.724;18.992;2022-07-29T07:07:00;97432.67;;;23.87;47.22
62293;BME280;48292;47.724;18.992;2022-07-29T07:12:02;97434.05;;;24.08;47.25
62293;BME280;48292;47.724;18.992;2022-07-29T07:17:04;97434.05;;;24.08;47.25
62293;BME280;48292;47.724;18.992;2022-07-29T07:22:06;97430.0;;;24.51;45.68
62293;BME280;48292;47.724;18.992;2022-07-29T07:27:08;97430.0;;;24.51;45.68
62293;BME280;48292;47.724;18.992;2022-07-29T07:32:10;97425.92;;;27.24;39.7
62293;BME280;48292;47.724;18.992;2022-07-29T07:37:12;97425.92;;;27.24;39.7
62293;BME280;48292;47.724;18.992;2022-07-29T07:42:14;97417.31;;;28.83;36.55
62293;BME280;48292;47.724;18.992;2022-07-29T07:47:16;97417.31;;;28.83;36.55
62293;BME280;48292;47.724;18.992;2022-07-29T07:52:22;97412.42;;;29.14;35.96
62293;BME280;48292;47.724;18.992;2022-07-29T07:57:24;97412.42;;;29.14;35.96
62293;BME280;48292;47.724;18.992;2022-07-29T08:02:26;97415.25;;;29.82;34.4
62293;BME280;48292;47.724;18.992;2022-07-29T08:07:28;97412.59;;;30.17;33.03
62293;BME280;48292;47.724;18.992;2022-07-29T08:12:30;97412.59;;;30.17;33.03
62293;BME280;48292;47.724;18.992;2022-07-29T08:17:31;97413.55;;;30.39;31.83
62293;BME280;48292;47.724;18.992;2022-07-29T08:22:36;97413.55;;;30.39;31.83
62293;BME280;48292;47.724;18.992;2022-07-29T08:27:38;97409.32;;;31.37;30.38
62293;BME280;48292;47.724;18.992;2022-07-29T08:32:47;97409.32;;;31.37;30.38
62293;BME280;48292;47.724;18.992;2022-07-29T08:37:53;97412.13;;;31.35;30.44
62293;BME280;48292;47.724;18.992;2022-07-29T08:42:55;97412.13;;;31.35;30.44
62293;BME280;48292;47.724;18.992;2022-07-29T08:47:57;97406.93;;;31.67;30.6
62293;BME280;48292;47.724;18.992;2022-07-29T08:52:58;97406.93;;;31.67;30.6
62293;BME280;48292;47.724;18.992;2022-07-29T08:58:01;97408.97;;;30.64;30.54
62293;BME280;48292;47.724;18.992;2022-07-29T09:03:03;97408.97;;;30.64;30.54
62293;BME280;48292;47.724;18.992;2022-07-29T09:08:06;97403.06;;;32.63;29.15
62293;BME280;48292;47.724;18.992;2022-07-29T09:13:08;97403.06;;;32.63;29.15
62293;BME280;48292;47.724;18.992;2022-07-29T09:18:10;97394.33;;;32.56;28.34
62293;BME280;48292;47.724;18.992;2022-07-29T09:23:15;97395.6;;;33.28;26.79
62293;BME280;48292;47.724;18.992;2022-07-29T09:28:21;97395.6;;;33.28;26.79
62293;BME280;48292;47.724;18.992;2022-07-29T09:33:24;97391.2;;;33.88;26.41
62293;BME280;48292;47.724;18.992;2022-07-29T09:38:29;97391.2;;;33.88;26.41
62293;BME280;48292;47.724;18.992;2022-07-29T09:43:30;97388.09;;;33.58;26.16
62293;BME280;48292;47.724;18.992;2022-07-29T09:48:32;97388.09;;;33.58;26.16
62293;BME280;48292;47.724;18.992;2022-07-29T09:53:35;97372.19;;;34.39;24.54
62293;BME280;48292;47.724;18.992;2022-07-29T09:58:38;97372.19;;;34.39;24.54
62293;BME280;48292;47.724;18.992;2022-07-29T10:08:45;97370.16;;;34.63;24.22
62293;BME280;48292;47.724;18.992;2022-07-29T10:13:48;97364.28;;;34.72;23.2
62293;BME280;48292;47.724;18.992;2022-07-29T10:18:50;97364.28;;;34.72;23.2
62293;BME280;48292;47.724;18.992;2022-07-29T10:23:53;97362.59;;;34.31;21.79
62293;BME280;48292;47.724;18.992;2022-07-29T10:29:00;97362.59;;;34.31;21.79
62293;BME280;48292;47.724;18.992;2022-07-29T10:34:03;97353.54;;;33.44;23.88
62293;BME280;48292;47.724;18.992;2022-07-29T10:39:10;97346.36;;;33.93;22.96
62293;BME280;48292;47.724;18.992;2022-07-29T10:44:14;97346.36;;;33.93;22.96
62293;BME280;48292;47.724;18.992;2022-07-29T10:49:24;97335.17;;;34.11;23.04
62293;BME280;48292;47.724;18.992;2022-07-29T10:54:36;97335.17;;;34.11;23.04
62293;BME280;48292;47.724;18.992;2022-07-29T10:59:44;97323.83;;;34.85;21.61
62293;BME280;48292;47.724;18.992;2022-07-29T11:15:07;97326.77;;;33.2;24.01
62293;BME280;48292;47.724;18.992;2022-07-29T11:25:15;97307.11;;;34.07;22.58
62293;BME280;48292;47.724;18.992;2022-07-29T11:30:27;97295.4;;;34.15;23.9
62293;BME280;48292;47.724;18.992;2022-07-29T11:35:32;97289.02;;;33.12;26.35
62293;BME280;48292;47.724;18.992;2022-07-29T11:40:38;97289.02;;;33.12;26.35
62293;BME280;48292;47.724;18.992;2022-07-29T11:45:46;97286.46;;;33.69;23.28
62293;BME280;48292;47.724;18.992;2022-07-29T11:50:48;97286.46;;;33.69;23.28
62293;BME280;48292;47.724;18.992;2022-07-29T11:55:54;97288.38;;;32.43;25.02
62293;BME280;48292;47.724;18.992;2022-07-29T12:00:59;97288.38;;;32.43;25.02
62293;BME280;48292;47.724;18.992;2022-07-29T12:11:15;97277.16;;;33.98;23.97
62293;BME280;48292;47.724;18.992;2022-07-29T12:16:17;97265.62;;;33.75;23.41
62293;BME280;48292;47.724;18.992;2022-07-29T12:21:23;97265.62;;;33.75;23.41
62293;BME280;48292;47.724;18.992;2022-07-29T12:26:29;97242.67;;;35.09;21.8
62293;BME280;48292;47.724;18.992;2022-07-29T12:31:36;97242.67;;;35.09;21.8
62293;BME280;48292;47.724;18.992;2022-07-29T12:36:42;97243.77;;;36.77;19.25
62293;BME280;48292;47.724;18.992;2022-07-29T12:41:44;97239.52;;;34.43;21.28
62293;BME280;48292;47.724;18.992;2022-07-29T12:51:51;97219.7;;;36.45;18.44
62293;BME280;48292;47.724;18.992;2022-07-29T12:56:57;97219.7;;;36.45;18.44
62293;BME280;48292;47.724;18.992;2022-07-29T13:02:00;97212.39;;;37.32;18.5
62293;BME280;48292;47.724;18.992;2022-07-29T13:07:03;97212.39;;;37.32;18.5
62293;BME280;48292;47.724;18.992;2022-07-29T13:12:07;97209.41;;;36.53;19.27
62293;BME280;48292;47.724;18.992;2022-07-29T13:17:09;97209.41;;;36.53;19.27
62293;BME280;48292;47.724;18.992;2022-07-29T13:22:12;97203.55;;;34.32;21.13
62293;BME280;48292;47.724;18.992;2022-07-29T13:27:15;97203.55;;;34.32;21.13
62293;BME280;48292;47.724;18.992;2022-07-29T13:32:17;97197.65;;;36.24;20.42
62293;BME280;48292;47.724;18.992;2022-07-29T13:37:19;97197.65;;;36.24;20.42
62293;BME280;48292;47.724;18.992;2022-07-29T13:42:21;97182.55;;;35.07;19.9
62293;BME280;48292;47.724;18.992;2022-07-29T13:47:23;97182.55;;;35.07;19.9
62293;BME280;48292;47.724;18.992;2022-07-29T13:52:28;97170.2;;;33.23;21.95
62293;BME280;48292;47.724;18.992;2022-07-29T13:57:30;97179.55;;;34.48;21.5
62293;BME280;48292;47.724;18.992;2022-07-29T14:02:32;97179.55;;;34.48;21.5
62293;BME280;48292;47.724;18.992;2022-07-29T14:07:34;97173.66;;;32.79;23.75
62293;BME280;48292;47.724;18.992;2022-07-29T14:12:36;97173.66;;;32.79;23.75
62293;BME280;48292;47.724;18.992;2022-07-29T14:17:37;97159.55;;;33.96;21.4
62293;BME280;48292;47.724;18.992;2022-07-29T14:22:39;97159.55;;;33.96;21.4
62293;BME280;48292;47.724;18.992;2022-07-29T14:27:45;97151.8;;;34.36;20.72
62293;BME280;48292;47.724;18.992;2022-07-29T14:32:47;97151.8;;;34.36;20.72
62293;BME280;48292;47.724;18.992;2022-07-29T14:37:49;97153.03;;;34.72;22.16
62293;BME280;48292;47.724;18.992;2022-07-29T14:42:50;97153.03;;;34.72;22.16
62293;BME280;48292;47.724;18.992;2022-07-29T14:47:52;97141.5;;;37.17;18.86
62293;BME280;48292;47.724;18.992;2022-07-29T14:52:59;97141.5;;;37.17;18.86
62293;BME280;48292;47.724;18.992;2022-07-29T14:58:01;97123.64;;;36.39;18.69
62293;BME280;48292;47.724;18.992;2022-07-29T15:03:07;97120.44;;;33.48;21.79
62293;BME280;48292;47.724;18.992;2022-07-29T15:08:18;97120.44;;;33.48;21.79
62293;BME280;48292;47.724;18.992;2022-07-29T15:13:19;97118.09;;;32.53;24.54
62293;BME280;48292;47.724;18.992;2022-07-29T15:18:21;97118.09;;;32.53;24.54
62293;BME280;48292;47.724;18.992;2022-07-29T15:23:27;97114.86;;;32.02;24.48
62293;BME280;48292;47.724;18.992;2022-07-29T15:28:29;97114.86;;;32.02;24.48
62293;BME280;48292;47.724;18.992;2022-07-29T15:33:31;97106.97;;;31.21;25.33
62293;BME280;48292;47.724;18.992;2022-07-29T15:38:33;97106.97;;;31.21;25.33
62293;BME280;48292;47.724;18.992;2022-07-29T15:43:34;97092.8;;;34.07;22.2
62293;BME280;48292;47.724;18.992;2022-07-29T15:48:37;97092.8;;;34.07;22.2
62293;BME280;48292;47.724;18.992;2022-07-29T15:53:40;97075.31;;;36.14;19.3
62293;BME280;48292;47.724;18.992;2022-07-29T15:58:41;97075.31;;;36.14;19.3
62293;BME280;48292;47.724;18.992;2022-07-29T16:03:43;97085.56;;;33.85;21.03
62293;BME280;48292;47.724;18.992;2022-07-29T16:08:48;97085.56;;;33.85;21.03
62293;BME280;48292;47.724;18.992;2022-07-29T16:13:49;97083.97;;;32.31;24.18
62293;BME280;48292;47.724;18.992;2022-07-29T16:18:52;97087.04;;;31.87;25.78
62293;BME280;48292;47.724;18.992;2022-07-29T16:23:54;97087.04;;;31.87;25.78
62293;BME280;48292;47.724;18.992;2022-07-29T16:28:56;97088.3;;;30.49;26.84
62293;BME280;48292;47.724;18.992;2022-07-29T16:33:59;97088.3;;;30.49;26.84
62293;BME280;48292;47.724;18.992;2022-07-29T16:39:01;97090.33;;;29.94;27.78
62293;BME280;48292;47.724;18.992;2022-07-29T16:44:03;97090.33;;;29.94;27.78
62293;BME280;48292;47.724;18.992;2022-07-29T16:49:05;97089.47;;;29.55;30.41
62293;BME280;48292;47.724;18.992;2022-07-29T16:54:07;97089.47;;;29.55;30.41
62293;BME280;48292;47.724;18.992;2022-07-29T16:59:09;97084.72;;;29.22;31.31
62293;BME280;48292;47.724;18.992;2022-07-29T17:04:11;97084.72;;;29.22;31.31
62293;BME280;48292;47.724;18.992;2022-07-29T17:09:13;97084.59;;;29.05;32.27
62293;BME280;48292;47.724;18.992;2022-07-29T17:14:14;97084.59;;;29.05;32.27
62293;BME280;48292;47.724;18.992;2022-07-29T17:19:23;97077.28;;;28.12;31.91
62293;BME280;48292;47.724;18.992;2022-07-29T17:24:24;97083.09;;;27.61;32.51
62293;BME280;48292;47.724;18.992;2022-07-29T17:29:26;97083.09;;;27.61;32.51
62293;BME280;48292;47.724;18.992;2022-07-29T17:34:28;97093.63;;;27.06;35.25
62293;BME280;48292;47.724;18.992;2022-07-29T17:39:30;97093.63;;;27.06;35.25
62293;BME280;48292;47.724;18.992;2022-07-29T17:44:32;97096.81;;;26.66;37.16
62293;BME280;48292;47.724;18.992;2022-07-29T17:49:37;97096.81;;;26.66;37.16
62293;BME280;48292;47.724;18.992;2022-07-29T17:54:39;97123.32;;;26.38;38.77
62293;BME280;48292;47.724;18.992;2022-07-29T17:59:41;97123.32;;;26.38;38.77
62293;BME280;48292;47.724;18.992;2022-07-29T18:04:43;97139.66;;;26.17;40.03
62293;BME280;48292;47.724;18.992;2022-07-29T18:09:44;97139.66;;;26.17;40.03
62293;BME280;48292;47.724;18.992;2022-07-29T18:14:46;97157.09;;;26.0;40.67
62293;BME280;48292;47.724;18.992;2022-07-29T18:19:48;97157.09;;;26.0;40.67
62293;BME280;48292;47.724;18.992;2022-07-29T18:24:50;97161.83;;;25.71;41.51
62293;BME280;48292;47.724;18.992;2022-07-29T18:29:52;97161.83;;;25.71;41.51
62293;BME280;48292;47.724;18.992;2022-07-29T18:34:53;97159.23;;;25.02;43.55
62293;BME280;48292;47.724;18.992;2022-07-29T18:39:55;97159.48;;;24.75;44.25
62293;BME280;48292;47.724;18.992;2022-07-29T18:45:00;97159.48;;;24.75;44.25
62293;BME280;48292;47.724;18.992;2022-07-29T18:50:14;97168.16;;;24.68;44.31
62293;BME280;48292;47.724;18.992;2022-07-29T18:55:16;97168.16;;;24.68;44.31
62293;BME280;48292;47.724;18.992;2022-07-29T19:00:18;97181.83;;;24.7;43.97
62293;BME280;48292;47.724;18.992;2022-07-29T19:05:21;97181.83;;;24.7;43.97
62293;BME280;48292;47.724;18.992;2022-07-29T19:10:24;97181.97;;;24.52;44.63
62293;BME280;48292;47.724;18.992;2022-07-29T19:15:25;97181.97;;;24.52;44.63
62293;BME280;48292;47.724;18.992;2022-07-29T19:20:27;97184.48;;;23.92;46.87
62293;BME280;48292;47.724;18.992;2022-07-29T19:25:29;97184.48;;;23.92;46.87
62293;BME280;48292;47.724;18.992;2022-07-29T19:30:35;97188.7;;;23.54;48.62
62293;BME280;48292;47.724;18.992;2022-07-29T19:35:37;97188.7;;;23.54;48.62
62293;BME280;48292;47.724;18.992;2022-07-29T19:40:39;97180.18;;;23.15;50.19
62293;BME280;48292;47.724;18.992;2022-07-29T19:45:41;97180.18;;;23.15;50.19
62293;BME280;48292;47.724;18.992;2022-07-29T19:50:43;97182.95;;;23.21;48.78
62293;BME280;48292;47.724;18.992;2022-07-29T19:55:46;97183.27;;;22.99;50.49
62293;BME280;48292;47.724;18.992;2022-07-29T20:00:48;97183.27;;;22.99;50.49
62293;BME280;48292;47.724;18.992;2022-07-29T20:05:50;97176.63;;;23.03;49.59
62293;BME280;48292;47.724;18.992;2022-07-29T20:10:52;97176.63;;;23.03;49.59
62293;BME280;48292;47.724;18.992;2022-07-29T20:15:53;97162.84;;;23.21;50.22
62293;BME280;48292;47.724;18.992;2022-07-29T20:20:56;97162.84;;;23.21;50.22
62293;BME280;48292;47.724;18.992;2022-07-29T20:25:58;97152.36;;;23.03;49.75
62293;BME280;48292;47.724;18.992;2022-07-29T20:31:00;97152.36;;;23.03;49.75
62293;BME280;48292;47.724;18.992;2022-07-29T20:36:02;97165.64;;;22.97;49.5
62293;BME280;48292;47.724;18.992;2022-07-29T20:41:04;97165.64;;;22.97;49.5
62293;BME280;48292;47.724;18.992;2022-07-29T20:46:05;97171.95;;;23.11;49.68
62293;BME280;48292;47.724;18.992;2022-07-29T20:51:07;97171.95;;;23.11;49.68
62293;BME280;48292;47.724;18.992;2022-07-29T20:56:09;97171.95;;;23.11;49.68
62293;BME280;48292;47.724;18.992;2022-07-29T21:01:11;97171.95;;;23.11;49.68
62293;BME280;48292;47.724;18.992;2022-07-29T21:06:14;97171.95;;;23.11;49.68
62293;BME280;48292;47.724;18.992;2022-07-29T21:11:15;97171.95;;;23.11;49.68
62293;BME280;48292;47.724;18.992;2022-07-29T21:16:22;97171.95;;;23.11;49.68
62293;BME280;48292;47.724;18.992;2022-07-29T21:21:24;97171.95;;;23.11;49.68
62293;BME280;48292;47.724;18.992;2022-07-29T21:26:26;97171.95;;;23.11;49.68
62293;BME280;48292;47.724;18.992;2022-07-29T21:31:29;97171.95;;;23.11;49.68
62293;BME280;48292;47.724;18.992;2022-07-29T21:36:31;97171.95;;;23.11;49.68
62293;BME280;48292;47.724;18.992;2022-07-29T21:41:37;97171.95;;;23.11;49.68
